Kezdőlap
METAR-TAF:

METAR-TAF

Repülőterek :

Audubon County Airport

Audubon, Iowa, Amerikai Egyesült Államok

földrajzi szélesség: 41-42-04N, földrajzi hosszúság: 094-55-13W, magasság: 392 m

Jelenlegi meteorológiai megfigyelések

A jelentés 21 perccel ezelõtt készült, 11:15 UTC
Szélcsend
Hőmérséklet 14°C
Páratartalom 58%
Légköri nyomás 1015 hPa
Látótávolság: 16.1 km
Szórványos felhőzet 6500 lábon
Szórványos felhőzet 7000 lábon
Szakadozott felhőzet 8000 lábon

METAR: KADU 171115Z AUTO 00000KT 10SM SCT065 SCT070 BKN080 14/06 A2996 RMK AO2 PWINO

Idő: 06:36 (11:36 UTC)


TAF: hiányzik

Meteorológiai megfigyelések és előrejelzések több, mint 4000 repülőtéren (METAR és TAF jelentéseket).

A térképen piros és sárga pontok jelzik az elérhető meteorológiai állomásokat.

Mozgassa az egeret a pont fölött, hogy megjelenjen az állomás neve.

Azután kattintson az időjárási megfigyelések és előrejelzések megtekintéséhez.

A térkép megváltoztatása: kattintson a fekete keresztel jelölt zöld gombra ráközelítéshez, a vonallal jelölt zöld gombra távolításhoz, vagy a zöld nyilakra a szomszédos térképek eléréséhez.


METAR-TAF: